sensor_id;sensor_type;location;lat;lon;timestamp;pressure;altitude;pressure_sealevel;temperature
71564;BMP180;59391;52.504;13.438;2023-02-05T00:01:44;103490.00;;;4.30
71564;BMP180;59391;52.504;13.438;2023-02-05T00:04:10;103595.00;;;4.30
71564;BMP180;59391;52.504;13.438;2023-02-05T00:06:36;103542.00;;;4.20
71564;BMP180;59391;52.504;13.438;2023-02-05T00:09:02;103493.00;;;4.20
71564;BMP180;59391;52.504;13.438;2023-02-05T00:11:27;103518.00;;;4.20
71564;BMP180;59391;52.504;13.438;2023-02-05T00:13:53;103556.00;;;4.20
71564;BMP180;59391;52.504;13.438;2023-02-05T00:16:22;103575.00;;;4.20
71564;BMP180;59391;52.504;13.438;2023-02-05T00:18:48;103581.00;;;4.20
71564;BMP180;59391;52.504;13.438;2023-02-05T00:21:16;103546.00;;;4.10
71564;BMP180;59391;52.504;13.438;2023-02-05T00:23:42;103578.00;;;4.10
71564;BMP180;59391;52.504;13.438;2023-02-05T00:26:09;103586.00;;;4.10
71564;BMP180;59391;52.504;13.438;2023-02-05T00:28:36;103582.00;;;4.10
71564;BMP180;59391;52.504;13.438;2023-02-05T00:31:08;103567.00;;;4.00
71564;BMP180;59391;52.504;13.438;2023-02-05T00:33:35;103566.00;;;4.00
71564;BMP180;59391;52.504;13.438;2023-02-05T00:36:00;103546.00;;;4.00
71564;BMP180;59391;52.504;13.438;2023-02-05T00:38:26;103556.00;;;4.00
71564;BMP180;59391;52.504;13.438;2023-02-05T00:40:51;103555.00;;;4.00
71564;BMP180;59391;52.504;13.438;2023-02-05T00:43:17;103565.00;;;4.00
71564;BMP180;59391;52.504;13.438;2023-02-05T00:45:43;103551.00;;;4.00
71564;BMP180;59391;52.504;13.438;2023-02-05T00:48:08;103557.00;;;4.00
71564;BMP180;59391;52.504;13.438;2023-02-05T00:50:34;103542.00;;;4.00
71564;BMP180;59391;52.504;13.438;2023-02-05T00:53:01;103567.00;;;4.00
71564;BMP180;59391;52.504;13.438;2023-02-05T00:55:27;103562.00;;;4.00
71564;BMP180;59391;52.504;13.438;2023-02-05T00:57:53;103563.00;;;4.00
71564;BMP180;59391;52.504;13.438;2023-02-05T01:00:19;103555.00;;;4.00
71564;BMP180;59391;52.504;13.438;2023-02-05T01:02:45;103547.00;;;4.00
71564;BMP180;59391;52.504;13.438;2023-02-05T01:05:11;103560.00;;;4.00
71564;BMP180;59391;52.504;13.438;2023-02-05T01:07:37;103553.00;;;3.90
71564;BMP180;59391;52.504;13.438;2023-02-05T01:10:04;103538.00;;;3.90
71564;BMP180;59391;52.504;13.438;2023-02-05T01:12:29;103538.00;;;3.90
71564;BMP180;59391;52.504;13.438;2023-02-05T01:15:01;103513.00;;;3.90
71564;BMP180;59391;52.504;13.438;2023-02-05T01:17:27;103533.00;;;3.80
71564;BMP180;59391;52.504;13.438;2023-02-05T01:19:53;103525.00;;;3.80
71564;BMP180;59391;52.504;13.438;2023-02-05T01:22:19;103509.00;;;3.80
71564;BMP180;59391;52.504;13.438;2023-02-05T01:24:44;103513.00;;;3.80
71564;BMP180;59391;52.504;13.438;2023-02-05T01:27:11;103497.00;;;3.70
71564;BMP180;59391;52.504;13.438;2023-02-05T01:29:37;103511.00;;;3.70
71564;BMP180;59391;52.504;13.438;2023-02-05T01:32:03;103506.00;;;3.70
71564;BMP180;59391;52.504;13.438;2023-02-05T01:34:29;103488.00;;;3.70
71564;BMP180;59391;52.504;13.438;2023-02-05T01:36:56;103504.00;;;3.60
71564;BMP180;59391;52.504;13.438;2023-02-05T01:39:22;103506.00;;;3.70
71564;BMP180;59391;52.504;13.438;2023-02-05T01:41:48;103506.00;;;3.70
71564;BMP180;59391;52.504;13.438;2023-02-05T01:44:21;103506.00;;;3.60
71564;BMP180;59391;52.504;13.438;2023-02-05T01:46:54;103511.00;;;3.60
71564;BMP180;59391;52.504;13.438;2023-02-05T01:49:34;103506.00;;;3.60
71564;BMP180;59391;52.504;13.438;2023-02-05T01:52:14;103502.00;;;3.60
71564;BMP180;59391;52.504;13.438;2023-02-05T01:54:44;103497.00;;;3.60
71564;BMP180;59391;52.504;13.438;2023-02-05T01:57:19;103449.00;;;3.60
71564;BMP180;59391;52.504;13.438;2023-02-05T01:59:49;103487.00;;;3.60
71564;BMP180;59391;52.504;13.438;2023-02-05T02:02:15;103455.00;;;3.60
71564;BMP180;59391;52.504;13.438;2023-02-05T02:04:46;103476.00;;;3.50
71564;BMP180;59391;52.504;13.438;2023-02-05T02:07:18;103430.00;;;3.50
71564;BMP180;59391;52.504;13.438;2023-02-05T02:09:47;103460.00;;;3.50
71564;BMP180;59391;52.504;13.438;2023-02-05T02:12:26;103470.00;;;3.60
71564;BMP180;59391;52.504;13.438;2023-02-05T02:14:59;103426.00;;;3.50
71564;BMP180;59391;52.504;13.438;2023-02-05T02:17:26;103424.00;;;3.50
71564;BMP180;59391;52.504;13.438;2023-02-05T02:20:00;103462.00;;;3.60
71564;BMP180;59391;52.504;13.438;2023-02-05T02:26:07;103448.00;;;3.50
71564;BMP180;59391;52.504;13.438;2023-02-05T02:28:50;103450.00;;;3.50
71564;BMP180;59391;52.504;13.438;2023-02-05T02:34:01;103432.00;;;3.40
71564;BMP180;59391;52.504;13.438;2023-02-05T02:36:35;103440.00;;;3.40
71564;BMP180;59391;52.504;13.438;2023-02-05T02:39:18;103416.00;;;3.30
71564;BMP180;59391;52.504;13.438;2023-02-05T02:41:55;103400.00;;;3.30
71564;BMP180;59391;52.504;13.438;2023-02-05T02:44:38;103408.00;;;3.30
71564;BMP180;59391;52.504;13.438;2023-02-05T02:47:16;103419.00;;;3.20
71564;BMP180;59391;52.504;13.438;2023-02-05T02:50:02;103440.00;;;3.10
71564;BMP180;59391;52.504;13.438;2023-02-05T02:52:35;103422.00;;;3.10
71564;BMP180;59391;52.504;13.438;2023-02-05T02:55:07;103422.00;;;3.00
71564;BMP180;59391;52.504;13.438;2023-02-05T02:57:36;103419.00;;;3.00
71564;BMP180;59391;52.504;13.438;2023-02-05T03:00:16;103436.00;;;3.00
71564;BMP180;59391;52.504;13.438;2023-02-05T03:02:44;103380.00;;;3.00
71564;BMP180;59391;52.504;13.438;2023-02-05T03:05:16;103376.00;;;2.90
71564;BMP180;59391;52.504;13.438;2023-02-05T03:07:52;103380.00;;;2.80
71564;BMP180;59391;52.504;13.438;2023-02-05T03:10:44;103444.00;;;2.90
71564;BMP180;59391;52.504;13.438;2023-02-05T03:13:12;103437.00;;;2.90
71564;BMP180;59391;52.504;13.438;2023-02-05T03:15:45;103430.00;;;2.90
71564;BMP180;59391;52.504;13.438;2023-02-05T03:18:14;103371.00;;;2.90
71564;BMP180;59391;52.504;13.438;2023-02-05T03:20:54;103448.00;;;2.90
71564;BMP180;59391;52.504;13.438;2023-02-05T03:23:22;103413.00;;;2.90
71564;BMP180;59391;52.504;13.438;2023-02-05T03:25:48;103419.00;;;2.90
71564;BMP180;59391;52.504;13.438;2023-02-05T03:28:14;103437.00;;;2.90
71564;BMP180;59391;52.504;13.438;2023-02-05T03:31:58;103437.00;;;2.90
71564;BMP180;59391;52.504;13.438;2023-02-05T03:40:03;103420.00;;;2.90
71564;BMP180;59391;52.504;13.438;2023-02-05T03:46:02;103433.00;;;3.00
71564;BMP180;59391;52.504;13.438;2023-02-05T03:48:57;103426.00;;;3.00
71564;BMP180;59391;52.504;13.438;2023-02-05T03:51:51;103396.00;;;3.00
71564;BMP180;59391;52.504;13.438;2023-02-05T03:54:37;103426.00;;;3.00
71564;BMP180;59391;52.504;13.438;2023-02-05T03:57:23;103434.00;;;3.00
71564;BMP180;59391;52.504;13.438;2023-02-05T03:59:51;103425.00;;;3.10
71564;BMP180;59391;52.504;13.438;2023-02-05T04:02:18;103437.00;;;3.10
71564;BMP180;59391;52.504;13.438;2023-02-05T04:04:44;103442.00;;;3.10
71564;BMP180;59391;52.504;13.438;2023-02-05T04:07:10;103446.00;;;3.20
71564;BMP180;59391;52.504;13.438;2023-02-05T04:09:36;103415.00;;;3.20
71564;BMP180;59391;52.504;13.438;2023-02-05T04:12:01;103441.00;;;3.20
71564;BMP180;59391;52.504;13.438;2023-02-05T04:14:27;103435.00;;;3.30
71564;BMP180;59391;52.504;13.438;2023-02-05T04:16:53;103474.00;;;3.30
71564;BMP180;59391;52.504;13.438;2023-02-05T04:19:18;103425.00;;;3.30
71564;BMP180;59391;52.504;13.438;2023-02-05T04:21:44;103459.00;;;3.30
71564;BMP180;59391;52.504;13.438;2023-02-05T04:24:10;103472.00;;;3.30
71564;BMP180;59391;52.504;13.438;2023-02-05T04:26:35;103468.00;;;3.30
71564;BMP180;59391;52.504;13.438;2023-02-05T04:29:01;103470.00;;;3.30
71564;BMP180;59391;52.504;13.438;2023-02-05T04:31:27;103440.00;;;3.30
71564;BMP180;59391;52.504;13.438;2023-02-05T04:33:52;103432.00;;;3.30
71564;BMP180;59391;52.504;13.438;2023-02-05T04:36:18;103475.00;;;3.30
71564;BMP180;59391;52.504;13.438;2023-02-05T04:38:44;103377.00;;;3.30
71564;BMP180;59391;52.504;13.438;2023-02-05T04:41:10;103464.00;;;3.10
71564;BMP180;59391;52.504;13.438;2023-02-05T04:43:35;103394.00;;;3.40
71564;BMP180;59391;52.504;13.438;2023-02-05T04:46:11;103366.00;;;3.40
71564;BMP180;59391;52.504;13.438;2023-02-05T04:48:37;103392.00;;;3.40
71564;BMP180;59391;52.504;13.438;2023-02-05T04:51:09;103288.00;;;3.10
71564;BMP180;59391;52.504;13.438;2023-02-05T04:53:38;103307.00;;;3.40
71564;BMP180;59391;52.504;13.438;2023-02-05T04:56:14;103443.00;;;3.30
71564;BMP180;59391;52.504;13.438;2023-02-05T04:58:41;103442.00;;;3.40
71564;BMP180;59391;52.504;13.438;2023-02-05T05:03:40;103412.00;;;3.40
71564;BMP180;59391;52.504;13.438;2023-02-05T05:06:06;103393.00;;;3.40
71564;BMP180;59391;52.504;13.438;2023-02-05T05:08:33;103441.00;;;3.30
71564;BMP180;59391;52.504;13.438;2023-02-05T05:10:59;103440.00;;;3.30
71564;BMP180;59391;52.504;13.438;2023-02-05T05:13:25;103452.00;;;3.20
71564;BMP180;59391;52.504;13.438;2023-02-05T05:15:55;103450.00;;;3.30
71564;BMP180;59391;52.504;13.438;2023-02-05T05:18:21;103412.00;;;3.30
71564;BMP180;59391;52.504;13.438;2023-02-05T05:20:47;103391.00;;;3.30
71564;BMP180;59391;52.504;13.438;2023-02-05T05:23:13;103430.00;;;3.30
71564;BMP180;59391;52.504;13.438;2023-02-05T05:25:44;103427.00;;;3.10
71564;BMP180;59391;52.504;13.438;2023-02-05T05:28:11;103432.00;;;3.30
71564;BMP180;59391;52.504;13.438;2023-02-05T05:30:39;103433.00;;;3.20
71564;BMP180;59391;52.504;13.438;2023-02-05T05:33:05;103441.00;;;2.80
71564;BMP180;59391;52.504;13.438;2023-02-05T05:35:31;103415.00;;;3.20
71564;BMP180;59391;52.504;13.438;2023-02-05T05:37:57;103450.00;;;2.90
71564;BMP180;59391;52.504;13.438;2023-02-05T05:40:26;103448.00;;;3.20
71564;BMP180;59391;52.504;13.438;2023-02-05T05:43:17;103392.00;;;3.20
71564;BMP180;59391;52.504;13.438;2023-02-05T05:46:05;103465.00;;;3.10
71564;BMP180;59391;52.504;13.438;2023-02-05T05:48:31;103465.00;;;3.20
71564;BMP180;59391;52.504;13.438;2023-02-05T05:50:57;103495.00;;;3.20
71564;BMP180;59391;52.504;13.438;2023-02-05T05:53:23;103434.00;;;3.30
71564;BMP180;59391;52.504;13.438;2023-02-05T05:55:48;103432.00;;;3.20
71564;BMP180;59391;52.504;13.438;2023-02-05T05:58:14;103448.00;;;3.20
71564;BMP180;59391;52.504;13.438;2023-02-05T06:00:41;103419.00;;;3.30
71564;BMP180;59391;52.504;13.438;2023-02-05T06:03:10;103467.00;;;3.30
71564;BMP180;59391;52.504;13.438;2023-02-05T06:05:36;103439.00;;;3.10
71564;BMP180;59391;52.504;13.438;2023-02-05T06:08:02;103371.00;;;3.30
71564;BMP180;59391;52.504;13.438;2023-02-05T06:10:28;103438.00;;;3.30
71564;BMP180;59391;52.504;13.438;2023-02-05T06:12:54;103412.00;;;3.30
71564;BMP180;59391;52.504;13.438;2023-02-05T06:15:22;103416.00;;;3.30
71564;BMP180;59391;52.504;13.438;2023-02-05T06:17:47;103450.00;;;3.30
71564;BMP180;59391;52.504;13.438;2023-02-05T06:20:14;103427.00;;;3.30
71564;BMP180;59391;52.504;13.438;2023-02-05T06:22:39;103452.00;;;3.30
71564;BMP180;59391;52.504;13.438;2023-02-05T06:25:06;103425.00;;;3.30
71564;BMP180;59391;52.504;13.438;2023-02-05T06:27:32;103436.00;;;3.30
71564;BMP180;59391;52.504;13.438;2023-02-05T06:29:57;103448.00;;;3.40
71564;BMP180;59391;52.504;13.438;2023-02-05T06:32:23;103441.00;;;3.40
71564;BMP180;59391;52.504;13.438;2023-02-05T06:34:49;103436.00;;;3.40
71564;BMP180;59391;52.504;13.438;2023-02-05T06:37:14;103416.00;;;3.50
71564;BMP180;59391;52.504;13.438;2023-02-05T06:39:40;103444.00;;;3.50
71564;BMP180;59391;52.504;13.438;2023-02-05T06:42:06;103441.00;;;3.50
71564;BMP180;59391;52.504;13.438;2023-02-05T06:44:32;103410.00;;;3.50
71564;BMP180;59391;52.504;13.438;2023-02-05T06:46:58;103424.00;;;3.60
71564;BMP180;59391;52.504;13.438;2023-02-05T06:49:24;103443.00;;;3.40
71564;BMP180;59391;52.504;13.438;2023-02-05T06:51:50;103438.00;;;3.60
71564;BMP180;59391;52.504;13.438;2023-02-05T06:54:16;103439.00;;;3.60
71564;BMP180;59391;52.504;13.438;2023-02-05T06:56:43;103448.00;;;3.60
71564;BMP180;59391;52.504;13.438;2023-02-05T06:59:08;103436.00;;;3.60
71564;BMP180;59391;52.504;13.438;2023-02-05T07:01:34;103473.00;;;3.60
71564;BMP180;59391;52.504;13.438;2023-02-05T07:04:00;103417.00;;;3.70
71564;BMP180;59391;52.504;13.438;2023-02-05T07:06:26;103427.00;;;3.70
71564;BMP180;59391;52.504;13.438;2023-02-05T07:08:53;103449.00;;;3.70
71564;BMP180;59391;52.504;13.438;2023-02-05T07:11:21;103494.00;;;3.70
71564;BMP180;59391;52.504;13.438;2023-02-05T07:13:47;103427.00;;;3.70
71564;BMP180;59391;52.504;13.438;2023-02-05T07:16:14;103474.00;;;3.80
71564;BMP180;59391;52.504;13.438;2023-02-05T07:18:39;103475.00;;;3.80
71564;BMP180;59391;52.504;13.438;2023-02-05T07:21:13;103465.00;;;3.80
71564;BMP180;59391;52.504;13.438;2023-02-05T07:23:41;103451.00;;;3.80
71564;BMP180;59391;52.504;13.438;2023-02-05T07:26:09;103451.00;;;3.70
71564;BMP180;59391;52.504;13.438;2023-02-05T07:28:35;103447.00;;;3.70
71564;BMP180;59391;52.504;13.438;2023-02-05T07:31:07;103437.00;;;3.60
71564;BMP180;59391;52.504;13.438;2023-02-05T07:33:37;103432.00;;;3.60
71564;BMP180;59391;52.504;13.438;2023-02-05T07:36:06;103451.00;;;3.70
71564;BMP180;59391;52.504;13.438;2023-02-05T07:38:33;103452.00;;;3.70
71564;BMP180;59391;52.504;13.438;2023-02-05T07:41:09;103453.00;;;3.70
71564;BMP180;59391;52.504;13.438;2023-02-05T07:43:36;103452.00;;;3.70
71564;BMP180;59391;52.504;13.438;2023-02-05T07:46:06;103450.00;;;3.70
71564;BMP180;59391;52.504;13.438;2023-02-05T07:48:36;103448.00;;;3.80
71564;BMP180;59391;52.504;13.438;2023-02-05T07:51:02;103433.00;;;3.70
71564;BMP180;59391;52.504;13.438;2023-02-05T07:53:34;103436.00;;;3.80
71564;BMP180;59391;52.504;13.438;2023-02-05T07:56:03;103423.00;;;3.90
71564;BMP180;59391;52.504;13.438;2023-02-05T07:58:29;103367.00;;;3.90
71564;BMP180;59391;52.504;13.438;2023-02-05T08:01:05;103447.00;;;3.90
71564;BMP180;59391;52.504;13.438;2023-02-05T08:03:31;103398.00;;;3.90
71564;BMP180;59391;52.504;13.438;2023-02-05T08:06:04;103307.00;;;3.90
71564;BMP180;59391;52.504;13.438;2023-02-05T08:08:31;103437.00;;;3.90
71564;BMP180;59391;52.504;13.438;2023-02-05T08:11:01;103397.00;;;3.90
71564;BMP180;59391;52.504;13.438;2023-02-05T08:13:28;103408.00;;;3.90
71564;BMP180;59391;52.504;13.438;2023-02-05T08:15:54;103339.00;;;3.90
71564;BMP180;59391;52.504;13.438;2023-02-05T08:18:20;103417.00;;;3.90
71564;BMP180;59391;52.504;13.438;2023-02-05T08:20:45;103411.00;;;3.90
71564;BMP180;59391;52.504;13.438;2023-02-05T08:23:11;103420.00;;;3.90
71564;BMP180;59391;52.504;13.438;2023-02-05T08:25:38;103401.00;;;3.80
71564;BMP180;59391;52.504;13.438;2023-02-05T08:28:04;103419.00;;;3.80
71564;BMP180;59391;52.504;13.438;2023-02-05T08:30:30;103418.00;;;3.90
71564;BMP180;59391;52.504;13.438;2023-02-05T08:32:56;103363.00;;;3.90
71564;BMP180;59391;52.504;13.438;2023-02-05T08:35:22;103417.00;;;4.00
71564;BMP180;59391;52.504;13.438;2023-02-05T08:37:47;103418.00;;;4.00
71564;BMP180;59391;52.504;13.438;2023-02-05T08:40:13;103381.00;;;4.00
71564;BMP180;59391;52.504;13.438;2023-02-05T08:42:44;103401.00;;;4.10
71564;BMP180;59391;52.504;13.438;2023-02-05T08:45:11;103409.00;;;4.10
71564;BMP180;59391;52.504;13.438;2023-02-05T08:47:37;103403.00;;;4.10
71564;BMP180;59391;52.504;13.438;2023-02-05T08:50:05;103421.00;;;4.20
71564;BMP180;59391;52.504;13.438;2023-02-05T08:52:33;103398.00;;;4.20
71564;BMP180;59391;52.504;13.438;2023-02-05T08:54:59;103412.00;;;4.20
71564;BMP180;59391;52.504;13.438;2023-02-05T08:57:28;103442.00;;;4.20
71564;BMP180;59391;52.504;13.438;2023-02-05T08:59:57;103364.00;;;4.20
71564;BMP180;59391;52.504;13.438;2023-02-05T09:02:26;103402.00;;;4.10
71564;BMP180;59391;52.504;13.438;2023-02-05T09:04:52;103322.00;;;4.30
71564;BMP180;59391;52.504;13.438;2023-02-05T09:07:21;103376.00;;;4.30
71564;BMP180;59391;52.504;13.438;2023-02-05T09:09:47;103303.00;;;4.30
71564;BMP180;59391;52.504;13.438;2023-02-05T09:12:13;103420.00;;;4.40
71564;BMP180;59391;52.504;13.438;2023-02-05T09:14:39;103306.00;;;4.30
71564;BMP180;59391;52.504;13.438;2023-02-05T09:17:09;103409.00;;;4.30
71564;BMP180;59391;52.504;13.438;2023-02-05T09:19:37;103413.00;;;4.30
71564;BMP180;59391;52.504;13.438;2023-02-05T09:22:05;103417.00;;;4.30
71564;BMP180;59391;52.504;13.438;2023-02-05T09:24:31;103410.00;;;4.20
71564;BMP180;59391;52.504;13.438;2023-02-05T09:26:57;103393.00;;;4.30
71564;BMP180;59391;52.504;13.438;2023-02-05T09:29:22;103408.00;;;4.30
71564;BMP180;59391;52.504;13.438;2023-02-05T09:31:48;103361.00;;;4.30
71564;BMP180;59391;52.504;13.438;2023-02-05T09:34:14;103385.00;;;4.20
71564;BMP180;59391;52.504;13.438;2023-02-05T09:36:40;103410.00;;;4.40
71564;BMP180;59391;52.504;13.438;2023-02-05T09:39:11;103421.00;;;4.20
71564;BMP180;59391;52.504;13.438;2023-02-05T09:42:09;103420.00;;;4.50
71564;BMP180;59391;52.504;13.438;2023-02-05T09:45:34;103419.00;;;4.50
71564;BMP180;59391;52.504;13.438;2023-02-05T09:48:40;103384.00;;;4.60
71564;BMP180;59391;52.504;13.438;2023-02-05T09:51:10;103414.00;;;4.60
71564;BMP180;59391;52.504;13.438;2023-02-05T09:53:43;103403.00;;;4.60
71564;BMP180;59391;52.504;13.438;2023-02-05T09:56:14;103391.00;;;4.70
71564;BMP180;59391;52.504;13.438;2023-02-05T09:58:49;103392.00;;;4.80
71564;BMP180;59391;52.504;13.438;2023-02-05T10:01:42;103401.00;;;4.90
71564;BMP180;59391;52.504;13.438;2023-02-05T10:04:09;103411.00;;;5.00
71564;BMP180;59391;52.504;13.438;2023-02-05T10:09:51;103402.00;;;5.20
71564;BMP180;59391;52.504;13.438;2023-02-05T10:12:40;103420.00;;;5.30
71564;BMP180;59391;52.504;13.438;2023-02-05T10:21:55;103391.00;;;6.10
71564;BMP180;59391;52.504;13.438;2023-02-05T10:24:46;103389.00;;;6.40
71564;BMP180;59391;52.504;13.438;2023-02-05T10:27:19;103376.00;;;6.70
71564;BMP180;59391;52.504;13.438;2023-02-05T10:30:09;103355.00;;;6.90
71564;BMP180;59391;52.504;13.438;2023-02-05T10:32:49;103373.00;;;6.90
71564;BMP180;59391;52.504;13.438;2023-02-05T10:35:41;103367.00;;;6.90
71564;BMP180;59391;52.504;13.438;2023-02-05T10:38:33;103366.00;;;6.80
71564;BMP180;59391;52.504;13.438;2023-02-05T10:43:52;103364.00;;;6.50
71564;BMP180;59391;52.504;13.438;2023-02-05T10:46:32;103356.00;;;6.50
71564;BMP180;59391;52.504;13.438;2023-02-05T10:49:31;103353.00;;;6.50
71564;BMP180;59391;52.504;13.438;2023-02-05T10:52:03;103354.00;;;6.50
71564;BMP180;59391;52.504;13.438;2023-02-05T10:55:04;103368.00;;;6.60
71564;BMP180;59391;52.504;13.438;2023-02-05T10:57:50;103283.00;;;6.80
71564;BMP180;59391;52.504;13.438;2023-02-05T11:00:39;103284.00;;;7.00
71564;BMP180;59391;52.504;13.438;2023-02-05T11:03:16;103375.00;;;7.10
71564;BMP180;59391;52.504;13.438;2023-02-05T11:05:43;103364.00;;;7.10
71564;BMP180;59391;52.504;13.438;2023-02-05T11:08:48;103316.00;;;7.20
71564;BMP180;59391;52.504;13.438;2023-02-05T11:11:37;103276.00;;;7.30
71564;BMP180;59391;52.504;13.438;2023-02-05T11:25:31;103348.00;;;7.10
71564;BMP180;59391;52.504;13.438;2023-02-05T11:28:03;103355.00;;;7.10
71564;BMP180;59391;52.504;13.438;2023-02-05T11:30:31;103349.00;;;7.10
71564;BMP180;59391;52.504;13.438;2023-02-05T11:33:17;103347.00;;;7.10
71564;BMP180;59391;52.504;13.438;2023-02-05T11:35:51;103332.00;;;7.10
71564;BMP180;59391;52.504;13.438;2023-02-05T11:38:44;103342.00;;;7.10
71564;BMP180;59391;52.504;13.438;2023-02-05T11:41:24;103341.00;;;7.20
71564;BMP180;59391;52.504;13.438;2023-02-05T11:43:51;103330.00;;;7.30
71564;BMP180;59391;52.504;13.438;2023-02-05T11:46:21;103338.00;;;7.30
71564;BMP180;59391;52.504;13.438;2023-02-05T11:49:02;103341.00;;;7.40
71564;BMP180;59391;52.504;13.438;2023-02-05T11:51:41;103331.00;;;7.70
71564;BMP180;59391;52.504;13.438;2023-02-05T11:54:27;103338.00;;;7.80
71564;BMP180;59391;52.504;13.438;2023-02-05T12:02:36;103340.00;;;7.90
71564;BMP180;59391;52.504;13.438;2023-02-05T12:07:59;103347.00;;;8.10
71564;BMP180;59391;52.504;13.438;2023-02-05T12:14:15;103325.00;;;8.30
71564;BMP180;59391;52.504;13.438;2023-02-05T12:17:10;103328.00;;;8.30
71564;BMP180;59391;52.504;13.438;2023-02-05T12:20:26;103335.00;;;8.50
71564;BMP180;59391;52.504;13.438;2023-02-05T12:26:37;103309.00;;;8.90
71564;BMP180;59391;52.504;13.438;2023-02-05T12:29:50;103328.00;;;9.10
71564;BMP180;59391;52.504;13.438;2023-02-05T12:33:03;103322.00;;;9.20
71564;BMP180;59391;52.504;13.438;2023-02-05T12:39:44;103321.00;;;9.20
71564;BMP180;59391;52.504;13.438;2023-02-05T12:42:42;103322.00;;;9.30
71564;BMP180;59391;52.504;13.438;2023-02-05T12:56:57;103327.00;;;10.00
71564;BMP180;59391;52.504;13.438;2023-02-05T12:59:54;103320.00;;;10.10
71564;BMP180;59391;52.504;13.438;2023-02-05T13:02:55;103324.00;;;10.20
71564;BMP180;59391;52.504;13.438;2023-02-05T13:25:30;103349.00;;;10.50
71564;BMP180;59391;52.504;13.438;2023-02-05T13:35:20;103326.00;;;10.50
71564;BMP180;59391;52.504;13.438;2023-02-05T13:38:58;103340.00;;;10.20
71564;BMP180;59391;52.504;13.438;2023-02-05T13:46:16;103369.00;;;9.60
71564;BMP180;59391;52.504;13.438;2023-02-05T13:52:13;103373.00;;;10.00
71564;BMP180;59391;52.504;13.438;2023-02-05T13:55:21;103376.00;;;9.90
71564;BMP180;59391;52.504;13.438;2023-02-05T14:00:19;103325.00;;;10.40
71564;BMP180;59391;52.504;13.438;2023-02-05T14:02:47;103376.00;;;10.60
71564;BMP180;59391;52.504;13.438;2023-02-05T14:05:38;103371.00;;;10.80
71564;BMP180;59391;52.504;13.438;2023-02-05T14:08:19;103358.00;;;11.00
71564;BMP180;59391;52.504;13.438;2023-02-05T14:10:55;103347.00;;;11.30
71564;BMP180;59391;52.504;13.438;2023-02-05T14:13:25;103348.00;;;11.80
71564;BMP180;59391;52.504;13.438;2023-02-05T14:15:55;103350.00;;;12.20
71564;BMP180;59391;52.504;13.438;2023-02-05T14:24:26;103342.00;;;12.20
71564;BMP180;59391;52.504;13.438;2023-02-05T14:26:55;103353.00;;;12.20
71564;BMP180;59391;52.504;13.438;2023-02-05T14:29:45;103341.00;;;12.10
71564;BMP180;59391;52.504;13.438;2023-02-05T14:32:54;103346.00;;;12.10
71564;BMP180;59391;52.504;13.438;2023-02-05T14:35:32;103339.00;;;12.00
71564;BMP180;59391;52.504;13.438;2023-02-05T14:38:32;103326.00;;;11.80
71564;BMP180;59391;52.504;13.438;2023-02-05T14:41:07;103321.00;;;11.70
71564;BMP180;59391;52.504;13.438;2023-02-05T14:43:39;103315.00;;;11.60
71564;BMP180;59391;52.504;13.438;2023-02-05T14:46:39;103295.00;;;11.50
71564;BMP180;59391;52.504;13.438;2023-02-05T14:49:26;103299.00;;;11.60
71564;BMP180;59391;52.504;13.438;2023-02-05T14:51:59;103328.00;;;11.50
71564;BMP180;59391;52.504;13.438;2023-02-05T14:54:45;103318.00;;;11.30
71564;BMP180;59391;52.504;13.438;2023-02-05T14:57:38;103314.00;;;11.20
71564;BMP180;59391;52.504;13.438;2023-02-05T15:05:49;103316.00;;;10.90
71564;BMP180;59391;52.504;13.438;2023-02-05T15:14:24;103337.00;;;10.30
71564;BMP180;59391;52.504;13.438;2023-02-05T15:19:50;103363.00;;;9.50
71564;BMP180;59391;52.504;13.438;2023-02-05T15:22:34;103348.00;;;9.20
71564;BMP180;59391;52.504;13.438;2023-02-05T15:25:08;103372.00;;;8.90
71564;BMP180;59391;52.504;13.438;2023-02-05T15:27:45;103356.00;;;8.60
71564;BMP180;59391;52.504;13.438;2023-02-05T15:30:24;103377.00;;;8.40
71564;BMP180;59391;52.504;13.438;2023-02-05T15:32:59;103384.00;;;8.10
71564;BMP180;59391;52.504;13.438;2023-02-05T15:35:38;103386.00;;;7.90
71564;BMP180;59391;52.504;13.438;2023-02-05T15:38:34;103374.00;;;7.70
71564;BMP180;59391;52.504;13.438;2023-02-05T15:41:06;103361.00;;;7.50
71564;BMP180;59391;52.504;13.438;2023-02-05T15:43:32;103347.00;;;7.30
71564;BMP180;59391;52.504;13.438;2023-02-05T15:46:04;103386.00;;;7.10
71564;BMP180;59391;52.504;13.438;2023-02-05T15:48:34;103393.00;;;6.90
71564;BMP180;59391;52.504;13.438;2023-02-05T15:51:30;103393.00;;;6.80
71564;BMP180;59391;52.504;13.438;2023-02-05T15:53:59;103394.00;;;6.70
71564;BMP180;59391;52.504;13.438;2023-02-05T16:01:43;103399.00;;;6.40
71564;BMP180;59391;52.504;13.438;2023-02-05T16:04:37;103395.00;;;6.30
71564;BMP180;59391;52.504;13.438;2023-02-05T16:07:26;103410.00;;;6.20
71564;BMP180;59391;52.504;13.438;2023-02-05T16:09:57;103419.00;;;6.20
71564;BMP180;59391;52.504;13.438;2023-02-05T16:12:24;103409.00;;;6.20
71564;BMP180;59391;52.504;13.438;2023-02-05T16:15:04;103379.00;;;6.10
71564;BMP180;59391;52.504;13.438;2023-02-05T16:17:44;103427.00;;;6.10
71564;BMP180;59391;52.504;13.438;2023-02-05T16:20:31;103416.00;;;6.00
71564;BMP180;59391;52.504;13.438;2023-02-05T16:23:00;103412.00;;;5.90
71564;BMP180;59391;52.504;13.438;2023-02-05T16:25:52;103418.00;;;5.80
71564;BMP180;59391;52.504;13.438;2023-02-05T16:28:51;103410.00;;;5.80
71564;BMP180;59391;52.504;13.438;2023-02-05T16:31:23;103391.00;;;5.70
71564;BMP180;59391;52.504;13.438;2023-02-05T16:33:53;103410.00;;;5.60
71564;BMP180;59391;52.504;13.438;2023-02-05T16:36:24;103402.00;;;5.60
71564;BMP180;59391;52.504;13.438;2023-02-05T16:38:59;103402.00;;;5.60
71564;BMP180;59391;52.504;13.438;2023-02-05T16:41:42;103390.00;;;5.50
71564;BMP180;59391;52.504;13.438;2023-02-05T16:44:27;103368.00;;;5.50
71564;BMP180;59391;52.504;13.438;2023-02-05T16:47:17;103392.00;;;5.40
71564;BMP180;59391;52.504;13.438;2023-02-05T16:49:46;103395.00;;;5.40